createdAt,value
2022-11-17T00:01:10.165Z,91.43
2022-11-17T00:03:39.899Z,90.61
2022-11-17T00:06:11.173Z,91.00
2022-11-17T00:08:40.900Z,90.76
2022-11-17T00:11:10.639Z,91.12
2022-11-17T00:13:58.497Z,91.12
2022-11-17T00:16:27.976Z,91.04
2022-11-17T00:19:15.019Z,92.21
2022-11-17T00:21:44.754Z,91.35
2022-11-17T00:24:18.590Z,91.56
2022-11-17T00:27:03.527Z,91.31
2022-11-17T00:29:37.371Z,92.01
2022-11-17T00:32:24.598Z,92.49
2022-11-17T00:34:54.625Z,92.12
2022-11-17T00:37:25.403Z,92.54
2022-11-17T00:40:00.313Z,92.15
2022-11-17T00:42:26.365Z,93.31
2022-11-17T00:44:56.180Z,92.45
2022-11-17T00:47:25.953Z,92.74
2022-11-17T00:49:55.703Z,92.90
2022-11-17T00:52:25.410Z,93.23
2022-11-17T00:54:55.429Z,92.88
2022-11-17T00:57:25.481Z,92.57
2022-11-17T00:59:55.520Z,93.61
2022-11-17T01:02:25.228Z,92.96
2022-11-17T01:04:54.951Z,93.01
2022-11-17T01:07:24.839Z,92.63
2022-11-17T01:09:54.693Z,92.79
2022-11-17T01:12:24.456Z,92.60
2022-11-17T01:14:54.479Z,93.93
2022-11-17T01:17:24.223Z,93.20
2022-11-17T01:19:53.969Z,93.91
2022-11-17T01:22:24.005Z,93.85
2022-11-17T01:24:53.762Z,93.12
2022-11-17T01:27:23.815Z,93.47
2022-11-17T01:29:53.516Z,93.47
2022-11-17T01:32:23.257Z,94.28
2022-11-17T01:34:52.982Z,93.50
2022-11-17T01:37:22.807Z,92.78
2022-11-17T01:39:52.536Z,92.78
2022-11-17T01:42:25.886Z,93.23
2022-11-17T01:45:01.062Z,93.39
2022-11-17T01:47:45.462Z,93.33
2022-11-17T01:50:18.084Z,93.53
2022-11-17T01:52:50.032Z,94.19
2022-11-17T01:55:22.069Z,92.60
2022-11-17T01:57:57.684Z,92.67
2022-11-17T02:00:27.987Z,92.79
2022-11-17T02:02:57.938Z,91.78
2022-11-17T02:05:36.243Z,92.08
2022-11-17T02:08:09.453Z,91.64
2022-11-17T02:10:39.706Z,90.82
2022-11-17T02:13:10.059Z,91.38
2022-11-17T02:15:39.898Z,91.99
2022-11-17T02:18:11.223Z,90.91
2022-11-17T02:20:44.385Z,90.11
2022-11-17T02:23:23.130Z,90.89
2022-11-17T02:26:13.607Z,89.49
2022-11-17T02:29:04.145Z,89.69
2022-11-17T02:31:53.254Z,89.35
2022-11-17T02:34:28.237Z,90.30
2022-11-17T02:37:12.524Z,88.57
2022-11-17T02:39:45.606Z,88.52
2022-11-17T02:42:25.636Z,88.52
2022-11-17T02:45:01.727Z,88.69
2022-11-17T02:47:33.759Z,89.15
2022-11-17T02:50:06.542Z,88.63
2022-11-17T02:52:36.555Z,87.76
2022-11-17T02:55:10.674Z,87.64
2022-11-17T02:57:42.251Z,87.11
2022-11-17T03:00:17.234Z,87.78
2022-11-17T03:02:58.855Z,87.78
2022-11-17T03:05:42.681Z,86.80
2022-11-17T03:08:32.918Z,87.25
2022-11-17T03:11:07.052Z,86.81
2022-11-17T03:13:51.272Z,86.30
2022-11-17T03:16:38.709Z,86.32
2022-11-17T03:19:17.273Z,86.32
2022-11-17T03:21:52.777Z,87.17
2022-11-17T03:24:34.253Z,87.14
2022-11-17T03:27:15.836Z,87.06
2022-11-17T03:29:48.610Z,87.32
2022-11-17T03:32:19.992Z,87.44
2022-11-17T03:35:01.697Z,86.75
2022-11-17T03:37:34.570Z,87.10
2022-11-17T03:40:12.349Z,87.44
2022-11-17T03:42:49.815Z,86.75
2022-11-17T03:45:22.583Z,87.60
2022-11-17T03:48:11.932Z,86.91
2022-11-17T03:50:45.005Z,87.54
2022-11-17T03:53:15.251Z,87.62
2022-11-17T03:55:56.893Z,87.30
2022-11-17T03:58:29.369Z,86.44
2022-11-17T04:01:02.735Z,87.79
2022-11-17T04:03:34.874Z,87.36
2022-11-17T04:06:05.140Z,88.33
2022-11-17T04:08:34.880Z,88.22
2022-11-17T04:11:22.539Z,88.26
2022-11-17T04:14:09.573Z,88.23
2022-11-17T04:16:38.999Z,88.97
2022-11-17T04:19:08.739Z,87.95
2022-11-17T04:21:38.813Z,88.71
2022-11-17T04:24:10.969Z,88.61
2022-11-17T04:26:58.419Z,88.99
2022-11-17T04:29:28.514Z,88.60
2022-11-17T04:31:58.232Z,88.32
2022-11-17T04:34:27.755Z,87.93
2022-11-17T04:36:57.552Z,87.61
2022-11-17T04:39:27.567Z,87.47
2022-11-17T04:41:58.933Z,87.87
2022-11-17T04:44:31.224Z,87.40
2022-11-17T04:47:02.679Z,86.74
2022-11-17T04:49:33.625Z,88.01
2022-11-17T04:52:03.527Z,87.50
2022-11-17T04:54:33.013Z,87.31
2022-11-17T04:57:03.512Z,87.72
2022-11-17T04:59:33.232Z,86.90
2022-11-17T05:02:06.073Z,87.87
2022-11-17T05:04:51.513Z,88.14
2022-11-17T05:07:21.352Z,89.03
2022-11-17T05:09:51.128Z,88.99
2022-11-17T05:12:38.376Z,88.99
2022-11-17T05:15:08.457Z,89.08
2022-11-17T05:17:38.467Z,88.50
2022-11-17T05:20:10.235Z,89.81
2022-11-17T05:23:00.235Z,89.83
2022-11-17T05:25:28.916Z,89.30
2022-11-17T05:27:59.508Z,89.04
2022-11-17T05:30:29.237Z,90.16
2022-11-17T05:32:58.966Z,90.63
2022-11-17T05:35:28.439Z,90.85
2022-11-17T05:37:58.184Z,90.93
2022-11-17T05:40:27.915Z,91.29
2022-11-17T05:42:57.640Z,91.55
2022-11-17T05:45:27.128Z,91.56
2022-11-17T05:47:56.847Z,91.23
2022-11-17T05:50:26.572Z,92.47
2022-11-17T05:52:57.663Z,92.47
2022-11-17T05:55:27.561Z,92.39
2022-11-17T05:58:00.824Z,90.28
2022-11-17T06:00:31.631Z,92.00
2022-11-17T06:03:04.388Z,92.23
2022-11-17T06:05:34.476Z,92.23
2022-11-17T06:08:07.085Z,92.68
2022-11-17T06:10:36.826Z,92.19
2022-11-17T06:13:06.627Z,91.00
2022-11-17T06:15:36.499Z,91.87
2022-11-17T06:18:19.005Z,91.87
2022-11-17T06:20:53.403Z,91.00
2022-11-17T06:23:25.817Z,91.00
2022-11-17T06:25:56.385Z,90.41
2022-11-17T06:28:28.113Z,90.63
2022-11-17T06:30:58.481Z,91.08
2022-11-17T06:33:31.454Z,91.16
2022-11-17T06:36:03.620Z,91.42
2022-11-17T06:38:35.114Z,90.69
2022-11-17T06:41:11.508Z,91.12
2022-11-17T06:43:37.468Z,90.49
2022-11-17T06:46:09.630Z,90.97
2022-11-17T06:48:39.413Z,91.09
2022-11-17T06:51:09.168Z,91.04
2022-11-17T06:53:38.997Z,91.38
2022-11-17T06:56:11.579Z,91.53
2022-11-17T06:58:41.946Z,91.91
2022-11-17T07:01:14.505Z,91.85
2022-11-17T07:03:44.598Z,90.60
2022-11-17T07:06:16.054Z,91.20
2022-11-17T07:08:46.197Z,89.77
2022-11-17T07:11:19.719Z,88.86
2022-11-17T07:13:49.282Z,88.96
2022-11-17T07:16:23.437Z,88.11
2022-11-17T07:18:53.477Z,87.24
2022-11-17T07:21:23.238Z,87.39
2022-11-17T07:23:52.772Z,87.60
2022-11-17T07:26:22.560Z,87.65
2022-11-17T07:28:52.345Z,87.22
2022-11-17T07:31:22.583Z,88.47
2022-11-17T07:33:54.606Z,87.86
2022-11-17T07:36:24.359Z,88.77
2022-11-17T07:38:54.193Z,88.55
2022-11-17T07:41:24.262Z,87.80
2022-11-17T07:43:54.077Z,88.21
2022-11-17T07:46:24.093Z,87.76
2022-11-17T07:48:57.028Z,87.57
2022-11-17T07:51:26.921Z,87.81
2022-11-17T07:53:56.958Z,87.49
2022-11-17T07:56:26.511Z,87.49
2022-11-17T07:58:56.236Z,87.92
2022-11-17T08:01:27.763Z,87.78
2022-11-17T08:03:58.448Z,87.41
2022-11-17T08:06:28.066Z,87.08
2022-11-17T08:08:57.890Z,87.21
2022-11-17T08:11:27.879Z,87.33
2022-11-17T08:13:57.468Z,87.47
2022-11-17T08:16:28.599Z,87.57
2022-11-17T08:18:58.700Z,87.61
2022-11-17T08:21:28.681Z,87.82
2022-11-17T08:24:00.138Z,87.87
2022-11-17T08:26:29.920Z,87.78
2022-11-17T08:29:01.084Z,87.96
2022-11-17T08:31:30.960Z,88.41
2022-11-17T08:34:00.729Z,87.98
2022-11-17T08:36:30.624Z,87.99
2022-11-17T08:39:00.377Z,87.80
2022-11-17T08:41:30.183Z,87.93
2022-11-17T08:44:00.377Z,88.92
2022-11-17T08:46:29.929Z,87.72
2022-11-17T08:49:01.093Z,88.31
2022-11-17T08:51:30.968Z,87.92
2022-11-17T08:54:00.724Z,87.93
2022-11-17T08:56:30.514Z,87.22
2022-11-17T08:59:00.350Z,87.46
2022-11-17T09:01:30.178Z,86.90
2022-11-17T09:03:59.925Z,87.06
2022-11-17T09:06:29.699Z,87.36
2022-11-17T09:08:59.767Z,87.06
2022-11-17T09:11:29.824Z,87.39
2022-11-17T09:13:59.614Z,87.00
2022-11-17T09:16:29.685Z,87.36
2022-11-17T09:18:59.738Z,87.11
2022-11-17T09:21:31.316Z,87.43
2022-11-17T09:24:01.270Z,87.74
2022-11-17T09:26:31.087Z,86.43
2022-11-17T09:29:04.665Z,87.01
2022-11-17T09:31:34.715Z,86.62
2022-11-17T09:34:06.634Z,86.10
2022-11-17T09:36:37.123Z,86.99
2022-11-17T09:39:06.932Z,86.82
2022-11-17T09:41:44.960Z,86.54
2022-11-17T09:44:41.956Z,86.30
2022-11-17T09:47:26.713Z,86.37
2022-11-17T09:50:16.097Z,86.42
2022-11-17T09:53:03.819Z,86.37
2022-11-17T09:55:39.066Z,86.11
2022-11-17T09:58:29.623Z,87.05
2022-11-17T10:00:59.803Z,86.61
2022-11-17T10:03:37.519Z,85.94
2022-11-17T10:06:06.589Z,86.19
2022-11-17T10:08:45.106Z,86.22
2022-11-17T10:11:32.638Z,86.22
2022-11-17T10:14:11.891Z,86.20
2022-11-17T10:16:57.161Z,85.90
2022-11-17T10:19:29.621Z,85.90
2022-11-17T10:22:02.732Z,85.95
2022-11-17T10:24:53.905Z,84.62
2022-11-17T10:27:32.310Z,84.21
2022-11-17T10:30:05.189Z,84.78
2022-11-17T10:32:38.162Z,84.19
2022-11-17T10:35:25.950Z,83.72
2022-11-17T10:38:01.663Z,83.72
2022-11-17T10:40:33.555Z,82.47
2022-11-17T10:43:06.688Z,81.66
2022-11-17T10:45:36.660Z,81.00
2022-11-17T10:48:13.051Z,82.23
2022-11-17T10:50:54.303Z,80.76
2022-11-17T10:53:42.986Z,80.02
2022-11-17T10:56:18.905Z,79.99
2022-11-17T10:58:57.438Z,79.69
2022-11-17T11:01:39.053Z,79.82
2022-11-17T11:04:29.947Z,79.57
2022-11-17T11:07:17.299Z,79.60
2022-11-17T11:09:58.832Z,79.16
2022-11-17T11:12:31.637Z,80.04
2022-11-17T11:15:03.237Z,79.75
2022-11-17T11:17:33.055Z,79.80
2022-11-17T11:20:02.843Z,78.32
2022-11-17T11:22:44.104Z,78.83
2022-11-17T11:25:16.886Z,77.87
2022-11-17T11:28:04.547Z,77.87
2022-11-17T11:30:37.322Z,78.86
2022-11-17T11:33:28.196Z,78.02
2022-11-17T11:36:11.424Z,77.98
2022-11-17T11:38:49.741Z,77.01
2022-11-17T11:41:28.269Z,77.84
2022-11-17T11:44:06.835Z,77.83
2022-11-17T11:46:51.518Z,77.62
2022-11-17T11:49:40.338Z,77.98
2022-11-17T11:52:14.127Z,77.98
2022-11-17T11:54:50.852Z,78.01
2022-11-17T11:57:22.009Z,78.26
2022-11-17T12:00:09.427Z,78.55
2022-11-17T12:03:05.750Z,78.53
2022-11-17T12:05:44.486Z,79.08
2022-11-17T12:08:37.997Z,78.66
2022-11-17T12:11:28.230Z,79.26
2022-11-17T12:14:00.029Z,79.26
2022-11-17T12:16:32.790Z,79.43
2022-11-17T12:19:03.053Z,79.29
2022-11-17T12:21:32.962Z,80.10
2022-11-17T12:24:11.858Z,79.00
2022-11-17T12:26:41.819Z,79.45
2022-11-17T12:29:26.427Z,79.11
2022-11-17T12:32:01.198Z,79.13
2022-11-17T12:34:36.983Z,78.74
2022-11-17T12:37:22.423Z,78.64
2022-11-17T12:40:12.011Z,78.95
2022-11-17T12:42:44.791Z,78.66
2022-11-17T12:45:14.589Z,78.25
2022-11-17T12:48:04.791Z,77.73
2022-11-17T12:50:20.800Z,78.25
2022-11-17T12:53:14.438Z,77.60
2022-11-17T12:55:49.624Z,78.64
2022-11-17T12:58:47.663Z,79.11
2022-11-17T13:01:36.614Z,78.40
2022-11-17T13:04:24.642Z,79.57
2022-11-17T13:07:02.875Z,79.41
2022-11-17T13:09:36.925Z,79.21
2022-11-17T13:12:10.674Z,79.21
2022-11-17T13:14:57.978Z,79.93
2022-11-17T13:17:30.456Z,80.10
2022-11-17T13:20:28.288Z,79.16
2022-11-17T13:23:08.078Z,80.70
2022-11-17T13:25:37.862Z,80.04
2022-11-17T13:28:27.028Z,79.25
2022-11-17T13:30:56.690Z,79.25
2022-11-17T13:33:27.568Z,79.27
2022-11-17T13:36:19.580Z,79.37
2022-11-17T13:38:52.069Z,78.18
2022-11-17T13:41:24.616Z,78.57
2022-11-17T13:43:55.994Z,78.68
2022-11-17T13:46:25.602Z,78.65
2022-11-17T13:48:55.202Z,78.03
2022-11-17T13:51:32.449Z,78.08
2022-11-17T13:54:07.891Z,78.08
2022-11-17T13:56:42.824Z,77.85
2022-11-17T13:59:24.715Z,76.64
2022-11-17T14:02:19.755Z,77.04
2022-11-17T14:05:15.003Z,76.33
2022-11-17T14:07:45.847Z,76.33
2022-11-17T14:10:24.323Z,75.35
2022-11-17T14:13:05.201Z,75.92
2022-11-17T14:15:47.903Z,75.99
2022-11-17T14:18:30.574Z,75.46
2022-11-17T14:21:18.779Z,74.80
2022-11-17T14:23:48.515Z,73.87
2022-11-17T14:26:21.191Z,73.27
2022-11-17T14:28:52.276Z,73.95
2022-11-17T14:31:22.307Z,73.79
2022-11-17T14:33:52.747Z,73.79
2022-11-17T14:36:22.411Z,72.50
2022-11-17T14:38:52.479Z,72.64
2022-11-17T14:41:22.222Z,72.33
2022-11-17T14:43:51.960Z,72.48
2022-11-17T14:46:27.534Z,72.40
2022-11-17T14:48:57.366Z,74.00
2022-11-17T14:51:27.114Z,72.21
2022-11-17T14:53:56.948Z,72.22
2022-11-17T14:56:26.796Z,71.75
2022-11-17T14:58:59.383Z,71.85
2022-11-17T15:01:31.954Z,72.00
2022-11-17T15:04:27.212Z,71.58
2022-11-17T15:06:35.667Z,71.66
2022-11-17T15:09:06.164Z,71.01
2022-11-17T15:11:40.486Z,71.20
2022-11-17T15:14:11.428Z,70.67
2022-11-17T15:16:41.377Z,70.94
2022-11-17T15:19:12.111Z,71.06
2022-11-17T15:21:41.611Z,71.86
2022-11-17T15:24:11.218Z,71.15
2022-11-17T15:26:40.993Z,70.91
2022-11-17T15:29:15.267Z,70.78
2022-11-17T15:31:45.418Z,71.10
2022-11-17T15:34:19.905Z,71.04
2022-11-17T15:36:46.841Z,70.79
2022-11-17T15:39:17.007Z,71.62
2022-11-17T15:41:47.320Z,70.81
2022-11-17T15:44:18.962Z,71.39
2022-11-17T15:46:48.818Z,71.39
2022-11-17T15:49:18.973Z,70.96
2022-11-17T15:51:48.886Z,70.86
2022-11-17T15:54:20.965Z,70.82
2022-11-17T15:56:51.689Z,71.21
2022-11-17T15:59:21.162Z,71.19
2022-11-17T16:01:51.397Z,71.24
2022-11-17T16:04:21.514Z,71.34
2022-11-17T16:06:51.929Z,71.51
2022-11-17T16:09:22.403Z,71.36
2022-11-17T16:11:52.291Z,71.06
2022-11-17T16:14:22.007Z,70.61
2022-11-17T16:16:51.768Z,70.31
2022-11-17T16:19:21.499Z,71.12
2022-11-17T16:21:51.304Z,70.69
2022-11-17T16:24:20.769Z,70.61
2022-11-17T16:26:51.181Z,71.06
2022-11-17T16:29:20.900Z,71.05
2022-11-17T16:31:51.107Z,71.81
2022-11-17T16:34:21.810Z,71.26
2022-11-17T16:36:51.673Z,71.12
2022-11-17T16:39:21.842Z,71.35
2022-11-17T16:41:52.526Z,72.07
2022-11-17T16:44:22.212Z,71.37
2022-11-17T16:46:52.106Z,71.01
2022-11-17T16:49:22.140Z,71.74
2022-11-17T16:51:54.101Z,71.44
2022-11-17T16:54:24.227Z,71.27
2022-11-17T16:56:53.969Z,71.39
2022-11-17T16:59:23.776Z,71.24
2022-11-17T17:01:53.627Z,71.25
2022-11-17T17:04:23.076Z,71.68
2022-11-17T17:06:52.894Z,70.84
2022-11-17T17:09:27.902Z,71.54
2022-11-17T17:11:55.226Z,71.07
2022-11-17T17:14:25.291Z,71.43
2022-11-17T17:16:55.022Z,70.85
2022-11-17T17:19:24.766Z,70.85
2022-11-17T17:21:54.496Z,71.64
2022-11-17T17:24:24.433Z,71.46
2022-11-17T17:26:54.175Z,71.51
2022-11-17T17:29:23.920Z,71.22
2022-11-17T17:31:53.949Z,71.75
2022-11-17T17:34:24.015Z,71.44
2022-11-17T17:36:53.784Z,71.95
2022-11-17T17:39:23.271Z,71.80
2022-11-17T17:41:53.381Z,72.06
2022-11-17T17:44:22.896Z,71.46
2022-11-17T17:46:52.621Z,72.58
2022-11-17T17:49:22.102Z,72.98
2022-11-17T17:51:52.131Z,72.17
2022-11-17T17:54:24.087Z,72.92
2022-11-17T17:56:53.915Z,73.03
2022-11-17T17:59:23.732Z,72.92
2022-11-17T18:01:53.471Z,72.84
2022-11-17T18:04:23.362Z,72.96
2022-11-17T18:06:54.800Z,72.31
2022-11-17T18:09:24.566Z,73.39
2022-11-17T18:11:54.298Z,73.37
2022-11-17T18:14:26.999Z,73.48
2022-11-17T18:16:56.746Z,73.23
2022-11-17T18:19:32.609Z,73.39
2022-11-17T18:21:58.767Z,73.39
2022-11-17T18:24:28.589Z,73.59
2022-11-17T18:26:58.308Z,73.35
2022-11-17T18:29:28.024Z,73.89
2022-11-17T18:31:57.887Z,74.31
2022-11-17T18:34:27.694Z,73.89
2022-11-17T18:36:57.501Z,72.92
2022-11-17T18:39:28.311Z,73.61
2022-11-17T18:41:58.120Z,73.89
2022-11-17T18:44:27.907Z,73.93
2022-11-17T18:47:02.567Z,74.30
2022-11-17T18:49:29.437Z,74.44
2022-11-17T18:51:59.202Z,74.17
2022-11-17T18:54:29.017Z,74.63
2022-11-17T18:57:00.037Z,74.64
2022-11-17T18:59:29.654Z,74.37
2022-11-17T19:01:59.978Z,74.12
2022-11-17T19:04:29.676Z,74.69
2022-11-17T19:07:00.826Z,74.73
2022-11-17T19:09:30.459Z,75.20
2022-11-17T19:12:00.416Z,75.00
2022-11-17T19:14:30.141Z,75.75
2022-11-17T19:17:00.174Z,75.11
2022-11-17T19:19:29.904Z,75.50
2022-11-17T19:21:59.620Z,75.70
2022-11-17T19:24:29.754Z,75.29
2022-11-17T19:26:59.595Z,75.41
2022-11-17T19:29:29.765Z,75.44
2022-11-17T19:32:00.103Z,75.15
2022-11-17T19:34:29.825Z,75.62
2022-11-17T19:36:59.570Z,75.43
2022-11-17T19:39:29.403Z,75.04
2022-11-17T19:41:59.163Z,75.14
2022-11-17T19:44:29.865Z,75.78
2022-11-17T19:46:59.599Z,75.62
2022-11-17T19:49:29.335Z,75.60
2022-11-17T19:51:59.174Z,75.23
2022-11-17T19:54:29.380Z,75.51
2022-11-17T19:56:59.126Z,76.05
2022-11-17T19:59:28.949Z,75.95
2022-11-17T20:01:58.744Z,75.51
2022-11-17T20:04:28.259Z,76.11
2022-11-17T20:06:58.229Z,75.88
2022-11-17T20:09:27.959Z,75.96
2022-11-17T20:11:58.044Z,75.94
2022-11-17T20:14:27.495Z,75.58
2022-11-17T20:16:57.594Z,76.25
2022-11-17T20:19:27.332Z,75.55
2022-11-17T20:21:56.924Z,75.86
2022-11-17T20:24:26.460Z,76.01
2022-11-17T20:26:56.278Z,76.39
2022-11-17T20:29:26.026Z,76.37
2022-11-17T20:31:55.859Z,76.06
2022-11-17T20:34:25.737Z,76.60
2022-11-17T20:36:55.536Z,77.00
2022-11-17T20:39:24.967Z,77.02
2022-11-17T20:41:54.745Z,77.49
2022-11-17T20:44:24.730Z,77.40
2022-11-17T20:46:55.890Z,77.92
2022-11-17T20:49:27.761Z,77.65
2022-11-17T20:51:57.536Z,77.11
2022-11-17T20:54:27.457Z,77.77
2022-11-17T20:56:57.290Z,77.46
2022-11-17T20:59:27.206Z,76.85
2022-11-17T21:01:56.972Z,76.26
2022-11-17T21:04:27.068Z,77.12
2022-11-17T21:06:56.846Z,77.66
2022-11-17T21:09:26.626Z,77.99
2022-11-17T21:11:59.046Z,77.99
2022-11-17T21:14:30.666Z,77.98
2022-11-17T21:17:00.819Z,77.48
2022-11-17T21:19:32.398Z,77.84
2022-11-17T21:22:02.212Z,77.88
2022-11-17T21:24:31.980Z,77.75
2022-11-17T21:27:01.914Z,78.03
2022-11-17T21:29:32.945Z,77.87
2022-11-17T21:32:02.696Z,78.39
2022-11-17T21:34:32.470Z,78.56
2022-11-17T21:37:03.735Z,78.10
2022-11-17T21:39:33.473Z,78.19
2022-11-17T21:42:03.231Z,78.32
2022-11-17T21:44:33.281Z,78.72
2022-11-17T21:47:03.314Z,78.72
2022-11-17T21:49:33.065Z,78.72
2022-11-17T21:52:03.101Z,78.72
2022-11-17T21:54:32.843Z,79.94
2022-11-17T21:57:02.593Z,79.20
2022-11-17T21:59:32.330Z,79.52
2022-11-17T22:02:02.362Z,79.23
2022-11-17T22:04:32.104Z,79.35
2022-11-17T22:07:01.893Z,79.50
2022-11-17T22:09:31.881Z,79.50
2022-11-17T22:12:01.687Z,79.18
2022-11-17T22:14:32.033Z,79.78
2022-11-17T22:17:01.755Z,79.29
2022-11-17T22:19:33.568Z,79.42
2022-11-17T22:22:03.287Z,79.00
2022-11-17T22:24:33.033Z,79.26
2022-11-17T22:27:02.485Z,79.94
2022-11-17T22:29:32.214Z,79.48
2022-11-17T22:32:01.946Z,78.98
2022-11-17T22:34:31.681Z,79.62
2022-11-17T22:37:01.427Z,80.19
2022-11-17T22:39:30.870Z,79.56
2022-11-17T22:42:00.907Z,79.50
2022-11-17T22:44:30.726Z,79.78
2022-11-17T22:47:00.447Z,79.75
2022-11-17T22:49:30.200Z,79.57
2022-11-17T22:52:07.480Z,79.50
2022-11-17T22:54:37.865Z,79.19
2022-11-17T22:57:07.583Z,79.31
2022-11-17T22:59:37.339Z,79.29
2022-11-17T23:02:08.366Z,79.29
2022-11-17T23:04:38.117Z,78.83
2022-11-17T23:07:07.945Z,79.83
2022-11-17T23:09:37.777Z,79.47
2022-11-17T23:12:09.118Z,79.39
2022-11-17T23:14:38.849Z,79.56
2022-11-17T23:17:08.598Z,79.37
2022-11-17T23:19:38.332Z,79.92
2022-11-17T23:22:11.682Z,79.44
2022-11-17T23:24:41.488Z,79.83
2022-11-17T23:27:11.318Z,79.74
2022-11-17T23:29:41.046Z,79.71
2022-11-17T23:32:12.148Z,79.58
2022-11-17T23:34:41.906Z,80.14
2022-11-17T23:37:11.908Z,81.48
2022-11-17T23:39:41.940Z,81.12
2022-11-17T23:42:13.814Z,80.95
2022-11-17T23:44:43.608Z,80.86
2022-11-17T23:47:13.348Z,81.24
2022-11-17T23:49:43.110Z,81.36
2022-11-17T23:52:14.143Z,80.94
2022-11-17T23:54:43.882Z,81.78
2022-11-17T23:57:13.627Z,81.98
2022-11-17T23:59:43.672Z,81.62
